SHT2T EGLL-EGCC
Flight info
| Callsign | SHT2T |
|---|---|
| Flight time | 0h 33m |
| Altitude | 18000 |
| Route | UMLAT T418 WELIN T420 ELVOS |
| Aircraft | A320/M-SDE3FGHIRWY/LB1 |
Departure
| Time | 2026-05-03 20:53 |
|---|---|
| Airport | London Heathrow Airport (EGLL) |
Arrival
| Time | 2026-05-03 21:26 |
|---|---|
| Airport | Manchester Airport (EGCC) |
| Time | Latitude | Longitude | Altitude | Speed | Heading |
|---|---|---|---|---|---|
| 2026-05-03 20:36 | 51.46931 | -0.48715 | 88 ft | 0 kts | 359° |
| 2026-05-03 20:40 | 51.46918 | -0.48715 | 90 ft | 4 kts | 359° |
| 2026-05-03 20:40 | 51.46891 | -0.48714 | 89 ft | 4 kts | 9° |
| 2026-05-03 20:41 | 51.46877 | -0.48731 | 89 ft | 4 kts | 84° |
| 2026-05-03 20:41 | 51.46876 | -0.48744 | 87 ft | 1 kts | 89° |
| 2026-05-03 20:41 | 51.46876 | -0.48769 | 86 ft | 4 kts | 89° |
| 2026-05-03 20:41 | 51.46876 | -0.48795 | 86 ft | 0 kts | 89° |
| 2026-05-03 20:45 | 51.46876 | -0.48791 | 86 ft | 3 kts | 89° |
| 2026-05-03 20:45 | 51.46876 | -0.48754 | 87 ft | 7 kts | 89° |
| 2026-05-03 20:45 | 51.46877 | -0.48652 | 86 ft | 11 kts | 89° |
| 2026-05-03 20:45 | 51.46877 | -0.48524 | 86 ft | 11 kts | 93° |
| 2026-05-03 20:46 | 51.46806 | -0.48467 | 87 ft | 15 kts | 179° |
| 2026-05-03 20:46 | 51.46690 | -0.48468 | 86 ft | 18 kts | 177° |
| 2026-05-03 20:46 | 51.46653 | -0.48300 | 87 ft | 20 kts | 89° |
| 2026-05-03 20:46 | 51.46654 | -0.48047 | 86 ft | 27 kts | 89° |
| 2026-05-03 20:47 | 51.46654 | -0.47716 | 86 ft | 31 kts | 90° |
| 2026-05-03 20:47 | 51.46655 | -0.47354 | 86 ft | 34 kts | 89° |
| 2026-05-03 20:47 | 51.46657 | -0.46969 | 88 ft | 35 kts | 89° |
| 2026-05-03 20:47 | 51.46658 | -0.46667 | 87 ft | 24 kts | 89° |
| 2026-05-03 20:48 | 51.46659 | -0.46384 | 89 ft | 27 kts | 89° |
| 2026-05-03 20:48 | 51.46660 | -0.46099 | 88 ft | 26 kts | 90° |
| 2026-05-03 20:48 | 51.46661 | -0.45793 | 86 ft | 29 kts | 90° |
| 2026-05-03 20:48 | 51.46662 | -0.45464 | 86 ft | 30 kts | 90° |
| 2026-05-03 20:49 | 51.46663 | -0.45175 | 86 ft | 17 kts | 90° |
| 2026-05-03 20:49 | 51.46664 | -0.44980 | 87 ft | 19 kts | 90° |
| 2026-05-03 20:49 | 51.46664 | -0.44787 | 87 ft | 18 kts | 90° |
| 2026-05-03 20:49 | 51.46665 | -0.44563 | 87 ft | 22 kts | 89° |
| 2026-05-03 20:50 | 51.46666 | -0.44330 | 86 ft | 21 kts | 90° |
| 2026-05-03 20:50 | 51.46667 | -0.44132 | 86 ft | 12 kts | 90° |
| 2026-05-03 20:50 | 51.46635 | -0.44053 | 86 ft | 8 kts | 163° |
| 2026-05-03 20:50 | 51.46562 | -0.44051 | 86 ft | 12 kts | 180° |
| 2026-05-03 20:51 | 51.46503 | -0.44051 | 86 ft | 4 kts | 180° |
| 2026-05-03 20:51 | 51.46494 | -0.44078 | 86 ft | 5 kts | 253° |
| 2026-05-03 20:51 | 51.46493 | -0.44099 | 86 ft | 0 kts | 268° |
| 2026-05-03 20:52 | 51.46493 | -0.44105 | 86 ft | 2 kts | 268° |
| 2026-05-03 20:52 | 51.46492 | -0.44368 | 87 ft | 60 kts | 270° |
| 2026-05-03 20:52 | 51.46489 | -0.45404 | 87 ft | 123 kts | 270° |
| 2026-05-03 20:53 | 51.46483 | -0.47049 | 180 ft | 163 kts | 269° |
| 2026-05-03 20:53 | 51.46455 | -0.48850 | 909 ft | 157 kts | 265° |
| 2026-05-03 20:53 | 51.46417 | -0.50586 | 1575 ft | 162 kts | 278° |
| 2026-05-03 20:53 | 51.46897 | -0.52365 | 1897 ft | 187 kts | 298° |
| 2026-05-03 20:54 | 51.47571 | -0.54304 | 2255 ft | 210 kts | 296° |
| 2026-05-03 20:54 | 51.49059 | -0.58849 | 3188 ft | 254 kts | 296° |
| 2026-05-03 20:54 | 51.49882 | -0.61402 | 4092 ft | 261 kts | 296° |
| 2026-05-03 20:55 | 51.50720 | -0.64014 | 5072 ft | 265 kts | 295° |
| 2026-05-03 20:55 | 51.51638 | -0.66611 | 6022 ft | 271 kts | 308° |
| 2026-05-03 20:55 | 51.53183 | -0.68350 | 6901 ft | 280 kts | 342° |
| 2026-05-03 20:55 | 51.55128 | -0.68694 | 7818 ft | 284 kts | 358° |
| 2026-05-03 20:56 | 51.57112 | -0.68724 | 8731 ft | 287 kts | 359° |
| 2026-05-03 20:56 | 51.59120 | -0.68768 | 9593 ft | 291 kts | 358° |
| 2026-05-03 20:56 | 51.61230 | -0.68866 | 9948 ft | 315 kts | 357° |
| 2026-05-03 20:56 | 51.63486 | -0.69034 | 10435 ft | 330 kts | 356° |
| 2026-05-03 20:57 | 51.65799 | -0.69252 | 11163 ft | 335 kts | 355° |
| 2026-05-03 20:57 | 51.68145 | -0.69502 | 11926 ft | 339 kts | 355° |
| 2026-05-03 20:57 | 51.70510 | -0.69770 | 12675 ft | 343 kts | 355° |
| 2026-05-03 20:57 | 51.72875 | -0.70044 | 13401 ft | 346 kts | 355° |
| 2026-05-03 20:58 | 51.75298 | -0.70323 | 14115 ft | 350 kts | 355° |
| 2026-05-03 20:58 | 51.77739 | -0.70603 | 14802 ft | 354 kts | 355° |
| 2026-05-03 20:58 | 51.80210 | -0.70885 | 15467 ft | 357 kts | 355° |
| 2026-05-03 20:58 | 51.82704 | -0.71167 | 16122 ft | 361 kts | 355° |
| 2026-05-03 20:59 | 51.85219 | -0.71450 | 16771 ft | 364 kts | 355° |
| 2026-05-03 20:59 | 51.87762 | -0.71736 | 17275 ft | 368 kts | 355° |
| 2026-05-03 20:59 | 51.90322 | -0.72022 | 17416 ft | 369 kts | 355° |
| 2026-05-03 20:59 | 51.92898 | -0.72311 | 17447 ft | 371 kts | 355° |
| 2026-05-03 21:00 | 51.95474 | -0.72598 | 17448 ft | 372 kts | 355° |
| 2026-05-03 21:00 | 51.96312 | -0.72690 | 17448 ft | 372 kts | 355° |
| 2026-05-03 21:00 | 52.00633 | -0.73181 | 17448 ft | 371 kts | 353° |
| 2026-05-03 21:00 | 52.03168 | -0.73958 | 17449 ft | 371 kts | 343° |
| 2026-05-03 21:01 | 52.05623 | -0.75238 | 17450 ft | 370 kts | 341° |
| 2026-05-03 21:01 | 52.08077 | -0.76527 | 17449 ft | 370 kts | 341° |
| 2026-05-03 21:01 | 52.10498 | -0.77789 | 17448 ft | 370 kts | 341° |
| 2026-05-03 21:01 | 52.12960 | -0.79069 | 17449 ft | 371 kts | 341° |
| 2026-05-03 21:02 | 52.15426 | -0.80353 | 17451 ft | 371 kts | 341° |
| 2026-05-03 21:02 | 52.17884 | -0.81638 | 17456 ft | 371 kts | 341° |
| 2026-05-03 21:02 | 52.20343 | -0.82926 | 17456 ft | 371 kts | 341° |
| 2026-05-03 21:02 | 52.22802 | -0.84213 | 17459 ft | 371 kts | 341° |
| 2026-05-03 21:03 | 52.25203 | -0.85760 | 17462 ft | 370 kts | 332° |
| 2026-05-03 21:03 | 52.27426 | -0.87885 | 17463 ft | 370 kts | 327° |
| 2026-05-03 21:03 | 52.29599 | -0.90055 | 17465 ft | 370 kts | 327° |
| 2026-05-03 21:03 | 52.31800 | -0.92251 | 17467 ft | 370 kts | 327° |
| 2026-05-03 21:04 | 52.33999 | -0.94442 | 17468 ft | 370 kts | 328° |
| 2026-05-03 21:04 | 52.36203 | -0.96640 | 17470 ft | 370 kts | 327° |
| 2026-05-03 21:04 | 52.38400 | -0.98838 | 17470 ft | 370 kts | 327° |
| 2026-05-03 21:04 | 52.40599 | -1.01035 | 17470 ft | 370 kts | 327° |
| 2026-05-03 21:05 | 52.42794 | -1.03230 | 17471 ft | 370 kts | 327° |
| 2026-05-03 21:05 | 52.44995 | -1.05438 | 17468 ft | 370 kts | 327° |
| 2026-05-03 21:05 | 52.47190 | -1.07643 | 17470 ft | 370 kts | 327° |
| 2026-05-03 21:05 | 52.49383 | -1.09844 | 17469 ft | 370 kts | 327° |
| 2026-05-03 21:06 | 52.51586 | -1.12057 | 17469 ft | 370 kts | 327° |
| 2026-05-03 21:06 | 52.53781 | -1.14268 | 17469 ft | 370 kts | 327° |
| 2026-05-03 21:06 | 52.55948 | -1.16452 | 17469 ft | 370 kts | 327° |
| 2026-05-03 21:06 | 52.58141 | -1.18661 | 17428 ft | 367 kts | 327° |
| 2026-05-03 21:07 | 52.60288 | -1.20826 | 17174 ft | 356 kts | 327° |
| 2026-05-03 21:07 | 52.62373 | -1.22930 | 16921 ft | 346 kts | 327° |
| 2026-05-03 21:07 | 52.64400 | -1.24980 | 16674 ft | 339 kts | 327° |
| 2026-05-03 21:07 | 52.66402 | -1.27011 | 16423 ft | 336 kts | 327° |
| 2026-05-03 21:08 | 52.68385 | -1.29019 | 16170 ft | 334 kts | 327° |
| 2026-05-03 21:08 | 52.70364 | -1.31022 | 15922 ft | 333 kts | 327° |
| 2026-05-03 21:08 | 52.72329 | -1.33019 | 15678 ft | 332 kts | 327° |
| 2026-05-03 21:08 | 52.74290 | -1.35012 | 15422 ft | 330 kts | 327° |
| 2026-05-03 21:09 | 52.76245 | -1.37001 | 15169 ft | 329 kts | 327° |
| 2026-05-03 21:09 | 52.78190 | -1.38990 | 14920 ft | 328 kts | 327° |
| 2026-05-03 21:09 | 52.80102 | -1.40948 | 14673 ft | 327 kts | 327° |
| 2026-05-03 21:09 | 52.82029 | -1.42924 | 14422 ft | 325 kts | 327° |
| 2026-05-03 21:10 | 52.83954 | -1.44898 | 14171 ft | 324 kts | 327° |
| 2026-05-03 21:10 | 52.85870 | -1.46861 | 13920 ft | 323 kts | 327° |
| 2026-05-03 21:10 | 52.87777 | -1.48814 | 13670 ft | 322 kts | 327° |
| 2026-05-03 21:10 | 52.89678 | -1.50763 | 13419 ft | 321 kts | 327° |
| 2026-05-03 21:11 | 52.91570 | -1.52702 | 13169 ft | 319 kts | 327° |
| 2026-05-03 21:11 | 52.93455 | -1.54638 | 12918 ft | 318 kts | 327° |
| 2026-05-03 21:11 | 52.95332 | -1.56572 | 12662 ft | 317 kts | 327° |
| 2026-05-03 21:11 | 52.97204 | -1.58505 | 12417 ft | 316 kts | 327° |
| 2026-05-03 21:12 | 52.99064 | -1.60429 | 12170 ft | 315 kts | 327° |
| 2026-05-03 21:12 | 53.00892 | -1.62322 | 11919 ft | 313 kts | 327° |
| 2026-05-03 21:12 | 53.02740 | -1.64235 | 11667 ft | 312 kts | 327° |
| 2026-05-03 21:12 | 53.04572 | -1.66165 | 11421 ft | 311 kts | 323° |
| 2026-05-03 21:13 | 53.06190 | -1.68514 | 11168 ft | 308 kts | 311° |
| 2026-05-03 21:13 | 53.07579 | -1.71206 | 10911 ft | 307 kts | 309° |
| 2026-05-03 21:13 | 53.08496 | -1.72995 | 10752 ft | 306 kts | 309° |
| 2026-05-03 21:13 | 53.09869 | -1.75665 | 10501 ft | 301 kts | 309° |
| 2026-05-03 21:14 | 53.11223 | -1.78281 | 10249 ft | 295 kts | 309° |
| 2026-05-03 21:14 | 53.12549 | -1.80839 | 10006 ft | 290 kts | 309° |
| 2026-05-03 21:14 | 53.13857 | -1.83369 | 9749 ft | 287 kts | 309° |
| 2026-05-03 21:14 | 53.15155 | -1.85886 | 9498 ft | 286 kts | 309° |
| 2026-05-03 21:15 | 53.16449 | -1.88406 | 9214 ft | 287 kts | 309° |
| 2026-05-03 21:15 | 53.17750 | -1.90950 | 8764 ft | 289 kts | 309° |
| 2026-05-03 21:15 | 53.19043 | -1.93487 | 8404 ft | 287 kts | 309° |
| 2026-05-03 21:15 | 53.20346 | -1.96040 | 8050 ft | 286 kts | 309° |
| 2026-05-03 21:16 | 53.21607 | -1.98545 | 7863 ft | 278 kts | 305° |
| 2026-05-03 21:16 | 53.22380 | -2.01438 | 7541 ft | 273 kts | 277° |
| 2026-05-03 21:16 | 53.22359 | -2.04570 | 7190 ft | 270 kts | 262° |
| 2026-05-03 21:16 | 53.22112 | -2.07671 | 6846 ft | 269 kts | 261° |
| 2026-05-03 21:17 | 53.21844 | -2.10757 | 6512 ft | 268 kts | 260° |
| 2026-05-03 21:17 | 53.21574 | -2.13826 | 6187 ft | 267 kts | 260° |
| 2026-05-03 21:17 | 53.21304 | -2.16882 | 5859 ft | 265 kts | 260° |
| 2026-05-03 21:17 | 53.21038 | -2.19892 | 5538 ft | 264 kts | 260° |
| 2026-05-03 21:18 | 53.20771 | -2.22906 | 5317 ft | 259 kts | 260° |
| 2026-05-03 21:18 | 53.20513 | -2.25824 | 5189 ft | 250 kts | 260° |
| 2026-05-03 21:18 | 53.20265 | -2.28645 | 5047 ft | 241 kts | 260° |
| 2026-05-03 21:18 | 53.19988 | -2.31351 | 4924 ft | 232 kts | 251° |
| 2026-05-03 21:19 | 53.19225 | -2.33663 | 4666 ft | 227 kts | 233° |
| 2026-05-03 21:19 | 53.18262 | -2.35736 | 4498 ft | 225 kts | 231° |
| 2026-05-03 21:19 | 53.17305 | -2.37771 | 4485 ft | 227 kts | 236° |
| 2026-05-03 21:19 | 53.16832 | -2.40256 | 4480 ft | 229 kts | 269° |
| 2026-05-03 21:20 | 53.17163 | -2.42868 | 4484 ft | 232 kts | 288° |
| 2026-05-03 21:20 | 53.17727 | -2.45356 | 4478 ft | 223 kts | 290° |
| 2026-05-03 21:20 | 53.18287 | -2.47676 | 4482 ft | 208 kts | 290° |
| 2026-05-03 21:20 | 53.18812 | -2.49826 | 4402 ft | 194 kts | 290° |
| 2026-05-03 21:21 | 53.19464 | -2.51753 | 4160 ft | 192 kts | 314° |
| 2026-05-03 21:21 | 53.20627 | -2.52818 | 3982 ft | 194 kts | 343° |
| 2026-05-03 21:21 | 53.21969 | -2.52961 | 3860 ft | 196 kts | 8° |
| 2026-05-03 21:21 | 53.23228 | -2.52144 | 3689 ft | 194 kts | 35° |
| 2026-05-03 21:22 | 53.24158 | -2.50584 | 3478 ft | 188 kts | 52° |
| 2026-05-03 21:22 | 53.24975 | -2.48905 | 3239 ft | 185 kts | 52° |
| 2026-05-03 21:22 | 53.25749 | -2.47319 | 3021 ft | 176 kts | 52° |
| 2026-05-03 21:22 | 53.26525 | -2.45726 | 2773 ft | 174 kts | 52° |
| 2026-05-03 21:23 | 53.27276 | -2.44183 | 2546 ft | 173 kts | 52° |
| 2026-05-03 21:23 | 53.28032 | -2.42631 | 2317 ft | 172 kts | 52° |
| 2026-05-03 21:23 | 53.28787 | -2.41079 | 2088 ft | 171 kts | 52° |
| 2026-05-03 21:23 | 53.29536 | -2.39539 | 1862 ft | 171 kts | 52° |
| 2026-05-03 21:24 | 53.30283 | -2.38000 | 1635 ft | 170 kts | 52° |
| 2026-05-03 21:24 | 53.31031 | -2.36462 | 1408 ft | 169 kts | 52° |
| 2026-05-03 21:24 | 53.31738 | -2.35028 | 1174 ft | 151 kts | 50° |
| 2026-05-03 21:24 | 53.32395 | -2.33721 | 1015 ft | 144 kts | 52° |
| 2026-05-03 21:25 | 53.33008 | -2.32413 | 826 ft | 142 kts | 53° |
| 2026-05-03 21:25 | 53.33622 | -2.31143 | 632 ft | 140 kts | 51° |
| 2026-05-03 21:25 | 53.34218 | -2.29890 | 428 ft | 138 kts | 51° |
| 2026-05-03 21:25 | 53.34822 | -2.28640 | 257 ft | 138 kts | 52° |
| 2026-05-03 21:26 | 53.35362 | -2.27521 | 243 ft | 101 kts | 51° |
| 2026-05-03 21:26 | 53.35694 | -2.26835 | 266 ft | 51 kts | 51° |
| 2026-05-03 21:26 | 53.35906 | -2.26395 | 267 ft | 42 kts | 51° |
| 2026-05-03 21:26 | 53.36023 | -2.26154 | 259 ft | 18 kts | 47° |
| 2026-05-03 21:27 | 53.36107 | -2.26208 | 255 ft | 10 kts | 321° |
| 2026-05-03 21:27 | 53.36144 | -2.26280 | 256 ft | 10 kts | 281° |
| 2026-05-03 21:27 | 53.36102 | -2.26401 | 256 ft | 14 kts | 230° |
| 2026-05-03 21:27 | 53.36031 | -2.26546 | 256 ft | 18 kts | 231° |
| 2026-05-03 21:28 | 53.35951 | -2.26713 | 256 ft | 19 kts | 231° |
| 2026-05-03 21:28 | 53.35887 | -2.26866 | 256 ft | 11 kts | 234° |
| 2026-05-03 21:28 | 53.35875 | -2.26893 | 256 ft | 0 kts | 231° |
| 2026-05-03 21:29 | 53.35872 | -2.26898 | 256 ft | 4 kts | 231° |
| 2026-05-03 21:29 | 53.35842 | -2.26970 | 256 ft | 10 kts | 238° |
| 2026-05-03 21:29 | 53.35796 | -2.27088 | 255 ft | 14 kts | 232° |
| 2026-05-03 21:30 | 53.35726 | -2.27235 | 255 ft | 18 kts | 231° |
| 2026-05-03 21:30 | 53.35640 | -2.27414 | 248 ft | 18 kts | 230° |
| 2026-05-03 21:30 | 53.35651 | -2.27564 | 246 ft | 17 kts | 323° |
| 2026-05-03 21:30 | 53.35751 | -2.27652 | 250 ft | 14 kts | 339° |
| 2026-05-03 21:31 | 53.35839 | -2.27731 | 253 ft | 15 kts | 356° |
| 2026-05-03 21:31 | 53.35948 | -2.27728 | 255 ft | 17 kts | 352° |
| 2026-05-03 21:31 | 53.36056 | -2.27843 | 255 ft | 18 kts | 322° |
| 2026-05-03 21:31 | 53.36159 | -2.27977 | 255 ft | 18 kts | 322° |
| 2026-05-03 21:32 | 53.36252 | -2.28128 | 255 ft | 19 kts | 314° |
| 2026-05-03 21:32 | 53.36349 | -2.28293 | 255 ft | 19 kts | 315° |
| 2026-05-03 21:32 | 53.36395 | -2.28437 | 255 ft | 12 kts | 258° |
| 2026-05-03 21:32 | 53.36432 | -2.28576 | 255 ft | 16 kts | 314° |
| 2026-05-03 21:33 | 53.36514 | -2.28704 | 255 ft | 12 kts | 340° |
| 2026-05-03 21:33 | 53.36585 | -2.28766 | 255 ft | 7 kts | 318° |
| 2026-05-03 21:33 | 53.36625 | -2.28783 | 255 ft | 5 kts | 21° |
| 2026-05-03 21:33 | 53.36645 | -2.28767 | 255 ft | 0 kts | 21° |
| 2026-05-03 21:34 | 53.36651 | -2.28768 | 255 ft | 2 kts | 355° |
| 2026-05-03 21:34 | 53.36654 | -2.28770 | 255 ft | 0 kts | 348° |
| 2026-05-03 21:34 | 53.36655 | -2.28770 | 255 ft | 1 kts | 347° |
| 2026-05-03 21:34 | 53.36665 | -2.28780 | 255 ft | 2 kts | 327° |
| 2026-05-03 21:35 | 53.36685 | -2.28813 | 255 ft | 6 kts | 315° |
| 2026-05-03 21:35 | 53.36704 | -2.28844 | 255 ft | 1 kts | 315° |
| 2026-05-03 21:35 | 53.36706 | -2.28847 | 255 ft | 0 kts | 314° |